This is the latest recevied weather packets stored in our database for station/object TAPIOLA. If no packets are shown the sender has not sent any weather packets the latest 10 day(s).
| Time | Temp. | Humidity | Pressure | Rain* | Wind** | Luminosity | Snow |
|---|---|---|---|---|---|---|---|
| 1777691221 | 3.33° C | 99% | 1012.2 hPa | 0 mm | - | - | - |
| 1777690020 | 2.78° C | 99% | 1012.4 hPa | 0 mm | - | - | - |
| 1777688821 | 3.33° C | 98% | 1012.7 hPa | 0 mm | - | - | - |
| 1777687620 | 3.33° C | 97% | 1013 hPa | 0 mm | - | - | - |
| 1777686420 | 3.89° C | 97% | 1013.2 hPa | 0 mm | - | - | - |
| 1777685220 | 3.89° C | 95% | 1013.1 hPa | 0 mm | - | - | - |
| 1777684021 | 4.44° C | 96% | 1013.4 hPa | 0 mm | - | - | - |
| 1777682820 | 4.44° C | 95% | 1013.5 hPa | 0 mm | - | - | - |
| 1777681621 | 4.44° C | 92% | 1013.7 hPa | 0 mm | - | - | - |
| 1777680420 | 5° C | 91% | 1014 hPa | 0 mm | - | - | - |
| 1777679220 | 5° C | 89% | 1014.1 hPa | 0 mm | - | - | - |
| 1777678020 | 5.56° C | 86% | 1014.3 hPa | 0 mm | - | - | - |
| 1777676820 | 6.11° C | 85% | 1014.3 hPa | 0 mm | - | - | - |
| 1777675620 | 6.11° C | 84% | 1014.4 hPa | 0 mm | - | - | - |
| 1777674420 | 6.67° C | 81% | 1014.4 hPa | 0 mm | - | - | - |
| 1777673220 | 7.22° C | 78% | 1014.6 hPa | 0 mm | - | - | - |
| 1777672020 | 7.78° C | 75% | 1014.8 hPa | 0 mm | - | - | - |
| 1777670819 | 8.33° C | 72% | 1015.2 hPa | 0 mm | - | - | - |
| 1777669619 | 8.33° C | 72% | 1015.2 hPa | 0 mm | - | - | - |
| 1777668419 | 9.44° C | 68% | 1015.2 hPa | 0 mm | - | - | - |
| 1777667219 | 9.44° C | 67% | 1015.5 hPa | 0 mm | - | - | - |
| 1777666019 | 10° C | 67% | 1015.5 hPa | 0 mm | - | - | - |
| 1777664819 | 10° C | 67% | 1015.6 hPa | 0 mm | - | - | - |
| 1777663619 | 11.11° C | 63% | 1015.8 hPa | 0 mm | - | - | - |
| 1777662419 | 12.78° C | 54% | 1015.8 hPa | 0 mm | - | - | - |
* Rain latest hour (hover to see other rain measurements)
** Current wind speed in m/s (hover to see current wind gust speed)